sensor_id;sensor_type;location;lat;lon;timestamp;P1;durP1;ratioP1;P2;durP2;ratioP2
52614;SDS011;38508;53.158;6.614;2022-12-08T00:01:57;6.40;;;4.45;;
52614;SDS011;38508;53.158;6.614;2022-12-08T00:04:22;13.82;;;4.20;;
52614;SDS011;38508;53.158;6.614;2022-12-08T00:06:48;6.80;;;4.20;;
52614;SDS011;38508;53.158;6.614;2022-12-08T00:09:37;10.90;;;4.38;;
52614;SDS011;38508;53.158;6.614;2022-12-08T00:12:09;9.45;;;4.40;;
52614;SDS011;38508;53.158;6.614;2022-12-08T00:14:37;4.20;;;3.90;;
52614;SDS011;38508;53.158;6.614;2022-12-08T00:17:05;4.78;;;4.30;;
52614;SDS011;38508;53.158;6.614;2022-12-08T00:19:33;7.75;;;4.70;;
52614;SDS011;38508;53.158;6.614;2022-12-08T00:22:00;9.88;;;4.82;;
52614;SDS011;38508;53.158;6.614;2022-12-08T00:24:29;8.23;;;4.70;;
52614;SDS011;38508;53.158;6.614;2022-12-08T00:26:55;12.30;;;5.30;;
52614;SDS011;38508;53.158;6.614;2022-12-08T00:29:21;11.73;;;4.93;;
52614;SDS011;38508;53.158;6.614;2022-12-08T00:31:47;8.82;;;5.68;;
52614;SDS011;38508;53.158;6.614;2022-12-08T00:34:13;9.10;;;5.47;;
52614;SDS011;38508;53.158;6.614;2022-12-08T00:36:39;10.57;;;5.38;;
52614;SDS011;38508;53.158;6.614;2022-12-08T00:39:05;12.60;;;6.28;;
52614;SDS011;38508;53.158;6.614;2022-12-08T00:41:31;5.60;;;4.85;;
52614;SDS011;38508;53.158;6.614;2022-12-08T00:44:16;6.82;;;5.00;;
52614;SDS011;38508;53.158;6.614;2022-12-08T00:46:46;7.75;;;5.68;;
52614;SDS011;38508;53.158;6.614;2022-12-08T00:49:13;5.20;;;4.70;;
52614;SDS011;38508;53.158;6.614;2022-12-08T00:51:39;7.60;;;4.90;;
52614;SDS011;38508;53.158;6.614;2022-12-08T00:54:06;9.27;;;5.40;;
52614;SDS011;38508;53.158;6.614;2022-12-08T00:56:32;7.80;;;5.10;;
52614;SDS011;38508;53.158;6.614;2022-12-08T00:58:58;6.95;;;5.72;;
52614;SDS011;38508;53.158;6.614;2022-12-08T01:01:24;6.80;;;4.95;;
52614;SDS011;38508;53.158;6.614;2022-12-08T01:03:50;9.00;;;5.60;;
52614;SDS011;38508;53.158;6.614;2022-12-08T01:06:17;10.52;;;5.47;;
52614;SDS011;38508;53.158;6.614;2022-12-08T01:08:43;7.63;;;5.30;;
52614;SDS011;38508;53.158;6.614;2022-12-08T01:11:10;8.32;;;5.65;;
52614;SDS011;38508;53.158;6.614;2022-12-08T01:13:37;9.32;;;5.55;;
52614;SDS011;38508;53.158;6.614;2022-12-08T01:16:03;10.63;;;5.55;;
52614;SDS011;38508;53.158;6.614;2022-12-08T01:18:29;9.60;;;5.55;;
52614;SDS011;38508;53.158;6.614;2022-12-08T01:21:00;8.07;;;5.10;;
52614;SDS011;38508;53.158;6.614;2022-12-08T01:23:29;9.85;;;5.70;;
52614;SDS011;38508;53.158;6.614;2022-12-08T01:25:55;6.93;;;5.18;;
52614;SDS011;38508;53.158;6.614;2022-12-08T01:28:25;10.65;;;5.22;;
52614;SDS011;38508;53.158;6.614;2022-12-08T01:30:50;7.50;;;5.25;;
52614;SDS011;38508;53.158;6.614;2022-12-08T01:33:16;7.63;;;5.47;;
52614;SDS011;38508;53.158;6.614;2022-12-08T01:35:41;12.63;;;6.10;;
52614;SDS011;38508;53.158;6.614;2022-12-08T01:38:07;6.15;;;5.10;;
52614;SDS011;38508;53.158;6.614;2022-12-08T01:40:33;8.55;;;5.95;;
52614;SDS011;38508;53.158;6.614;2022-12-08T01:42:58;6.97;;;5.65;;
52614;SDS011;38508;53.158;6.614;2022-12-08T01:45:25;6.75;;;5.32;;
52614;SDS011;38508;53.158;6.614;2022-12-08T01:47:54;7.13;;;5.07;;
52614;SDS011;38508;53.158;6.614;2022-12-08T01:50:22;11.45;;;5.43;;
52614;SDS011;38508;53.158;6.614;2022-12-08T01:52:50;7.68;;;5.40;;
52614;SDS011;38508;53.158;6.614;2022-12-08T01:55:22;7.95;;;4.85;;
52614;SDS011;38508;53.158;6.614;2022-12-08T01:58:02;5.70;;;4.40;;
52614;SDS011;38508;53.158;6.614;2022-12-08T02:00:35;5.70;;;4.88;;
52614;SDS011;38508;53.158;6.614;2022-12-08T02:03:02;4.65;;;4.18;;
52614;SDS011;38508;53.158;6.614;2022-12-08T02:05:33;6.07;;;4.43;;
52614;SDS011;38508;53.158;6.614;2022-12-08T02:08:03;7.53;;;4.70;;
52614;SDS011;38508;53.158;6.614;2022-12-08T02:10:33;5.00;;;4.60;;
52614;SDS011;38508;53.158;6.614;2022-12-08T02:13:00;4.70;;;4.30;;
52614;SDS011;38508;53.158;6.614;2022-12-08T02:15:31;5.15;;;4.55;;
52614;SDS011;38508;53.158;6.614;2022-12-08T02:18:15;4.75;;;4.35;;
52614;SDS011;38508;53.158;6.614;2022-12-08T02:37:27;8.35;;;5.03;;
52614;SDS011;38508;53.158;6.614;2022-12-08T02:40:18;8.40;;;5.03;;
52614;SDS011;38508;53.158;6.614;2022-12-08T02:42:47;5.18;;;4.60;;
52614;SDS011;38508;53.158;6.614;2022-12-08T02:45:29;8.10;;;5.10;;
52614;SDS011;38508;53.158;6.614;2022-12-08T02:48:00;5.28;;;4.78;;
52614;SDS011;38508;53.158;6.614;2022-12-08T02:50:26;7.97;;;4.30;;
52614;SDS011;38508;53.158;6.614;2022-12-08T02:52:52;4.70;;;4.28;;
52614;SDS011;38508;53.158;6.614;2022-12-08T02:57:54;4.50;;;4.20;;
52614;SDS011;38508;53.158;6.614;2022-12-08T03:00:24;4.22;;;3.92;;
52614;SDS011;38508;53.158;6.614;2022-12-08T03:03:08;4.00;;;3.80;;
52614;SDS011;38508;53.158;6.614;2022-12-08T03:06:06;3.72;;;3.53;;
52614;SDS011;38508;53.158;6.614;2022-12-08T03:08:58;3.75;;;3.47;;
52614;SDS011;38508;53.158;6.614;2022-12-08T03:11:33;5.20;;;3.83;;
52614;SDS011;38508;53.158;6.614;2022-12-08T03:14:08;4.35;;;3.90;;
52614;SDS011;38508;53.158;6.614;2022-12-08T03:16:38;5.35;;;4.05;;
52614;SDS011;38508;53.158;6.614;2022-12-08T03:22:06;5.28;;;4.25;;
52614;SDS011;38508;53.158;6.614;2022-12-08T03:24:38;6.10;;;4.18;;
52614;SDS011;38508;53.158;6.614;2022-12-08T03:27:08;6.38;;;4.15;;
52614;SDS011;38508;53.158;6.614;2022-12-08T03:29:55;5.00;;;4.32;;
52614;SDS011;38508;53.158;6.614;2022-12-08T03:34:53;4.43;;;4.13;;
52614;SDS011;38508;53.158;6.614;2022-12-08T03:37:22;4.30;;;4.00;;
52614;SDS011;38508;53.158;6.614;2022-12-08T03:39:47;4.30;;;4.00;;
52614;SDS011;38508;53.158;6.614;2022-12-08T03:42:13;5.75;;;4.15;;
52614;SDS011;38508;53.158;6.614;2022-12-08T03:44:39;4.28;;;3.88;;
52614;SDS011;38508;53.158;6.614;2022-12-08T03:47:04;4.38;;;4.07;;
52614;SDS011;38508;53.158;6.614;2022-12-08T03:49:31;3.95;;;3.70;;
52614;SDS011;38508;53.158;6.614;2022-12-08T03:51:57;3.72;;;3.42;;
52614;SDS011;38508;53.158;6.614;2022-12-08T03:54:22;4.05;;;3.75;;
52614;SDS011;38508;53.158;6.614;2022-12-08T03:56:48;3.78;;;3.47;;
52614;SDS011;38508;53.158;6.614;2022-12-08T03:59:14;3.67;;;3.47;;
52614;SDS011;38508;53.158;6.614;2022-12-08T04:01:39;4.32;;;3.80;;
52614;SDS011;38508;53.158;6.614;2022-12-08T04:04:05;4.75;;;3.58;;
52614;SDS011;38508;53.158;6.614;2022-12-08T04:06:31;5.47;;;3.97;;
52614;SDS011;38508;53.158;6.614;2022-12-08T04:08:56;6.35;;;3.72;;
52614;SDS011;38508;53.158;6.614;2022-12-08T04:11:22;3.67;;;3.15;;
52614;SDS011;38508;53.158;6.614;2022-12-08T04:13:48;4.28;;;3.17;;
52614;SDS011;38508;53.158;6.614;2022-12-08T04:16:18;4.68;;;3.95;;
52614;SDS011;38508;53.158;6.614;2022-12-08T04:18:46;6.90;;;5.63;;
52614;SDS011;38508;53.158;6.614;2022-12-08T04:21:12;6.05;;;4.47;;
52614;SDS011;38508;53.158;6.614;2022-12-08T04:23:38;8.38;;;4.70;;
52614;SDS011;38508;53.158;6.614;2022-12-08T04:26:04;5.10;;;4.68;;
52614;SDS011;38508;53.158;6.614;2022-12-08T04:28:30;6.18;;;4.60;;
52614;SDS011;38508;53.158;6.614;2022-12-08T04:30:56;3.78;;;3.42;;
52614;SDS011;38508;53.158;6.614;2022-12-08T04:33:21;5.40;;;4.82;;
52614;SDS011;38508;53.158;6.614;2022-12-08T04:35:47;10.02;;;7.43;;
52614;SDS011;38508;53.158;6.614;2022-12-08T04:38:13;6.97;;;5.82;;
52614;SDS011;38508;53.158;6.614;2022-12-08T04:40:39;5.07;;;3.85;;
52614;SDS011;38508;53.158;6.614;2022-12-08T04:43:05;6.38;;;5.80;;
52614;SDS011;38508;53.158;6.614;2022-12-08T04:45:31;5.50;;;5.00;;
52614;SDS011;38508;53.158;6.614;2022-12-08T04:48:00;4.90;;;4.40;;
52614;SDS011;38508;53.158;6.614;2022-12-08T04:50:26;3.97;;;3.45;;
52614;SDS011;38508;53.158;6.614;2022-12-08T04:52:52;4.00;;;3.70;;
52614;SDS011;38508;53.158;6.614;2022-12-08T04:55:17;3.42;;;3.13;;
52614;SDS011;38508;53.158;6.614;2022-12-08T04:57:43;4.00;;;3.80;;
52614;SDS011;38508;53.158;6.614;2022-12-08T05:00:09;4.05;;;3.67;;
52614;SDS011;38508;53.158;6.614;2022-12-08T05:02:35;4.03;;;3.65;;
52614;SDS011;38508;53.158;6.614;2022-12-08T05:05:01;3.28;;;2.70;;
52614;SDS011;38508;53.158;6.614;2022-12-08T05:07:28;3.10;;;2.90;;
52614;SDS011;38508;53.158;6.614;2022-12-08T05:09:53;4.35;;;2.60;;
52614;SDS011;38508;53.158;6.614;2022-12-08T05:12:19;4.10;;;3.30;;
52614;SDS011;38508;53.158;6.614;2022-12-08T05:14:45;7.60;;;3.40;;
52614;SDS011;38508;53.158;6.614;2022-12-08T05:17:12;5.15;;;3.30;;
52614;SDS011;38508;53.158;6.614;2022-12-08T05:19:38;3.72;;;2.53;;
52614;SDS011;38508;53.158;6.614;2022-12-08T05:22:04;3.72;;;3.28;;
52614;SDS011;38508;53.158;6.614;2022-12-08T05:24:30;3.00;;;2.90;;
52614;SDS011;38508;53.158;6.614;2022-12-08T05:26:55;3.45;;;3.20;;
52614;SDS011;38508;53.158;6.614;2022-12-08T05:29:21;5.18;;;4.32;;
52614;SDS011;38508;53.158;6.614;2022-12-08T05:31:47;3.20;;;3.00;;
52614;SDS011;38508;53.158;6.614;2022-12-08T05:34:12;4.40;;;2.70;;
52614;SDS011;38508;53.158;6.614;2022-12-08T05:36:38;5.07;;;2.50;;
52614;SDS011;38508;53.158;6.614;2022-12-08T05:39:04;2.95;;;2.70;;
52614;SDS011;38508;53.158;6.614;2022-12-08T05:41:29;4.55;;;2.60;;
52614;SDS011;38508;53.158;6.614;2022-12-08T05:43:55;4.38;;;2.95;;
52614;SDS011;38508;53.158;6.614;2022-12-08T05:46:21;2.85;;;2.65;;
52614;SDS011;38508;53.158;6.614;2022-12-08T05:48:46;6.78;;;2.80;;
52614;SDS011;38508;53.158;6.614;2022-12-08T05:51:22;4.28;;;2.50;;
52614;SDS011;38508;53.158;6.614;2022-12-08T05:58:41;3.17;;;2.97;;
52614;SDS011;38508;53.158;6.614;2022-12-08T06:01:06;4.53;;;3.20;;
52614;SDS011;38508;53.158;6.614;2022-12-08T06:03:41;3.10;;;2.90;;
52614;SDS011;38508;53.158;6.614;2022-12-08T06:06:07;3.05;;;2.80;;
52614;SDS011;38508;53.158;6.614;2022-12-08T06:08:33;3.40;;;3.10;;
52614;SDS011;38508;53.158;6.614;2022-12-08T06:10:58;3.20;;;2.90;;
52614;SDS011;38508;53.158;6.614;2022-12-08T06:13:24;3.10;;;2.80;;
52614;SDS011;38508;53.158;6.614;2022-12-08T06:15:50;5.85;;;3.40;;
52614;SDS011;38508;53.158;6.614;2022-12-08T06:18:15;4.00;;;2.88;;
52614;SDS011;38508;53.158;6.614;2022-12-08T06:20:41;2.53;;;2.33;;
52614;SDS011;38508;53.158;6.614;2022-12-08T06:23:06;4.00;;;2.20;;
52614;SDS011;38508;53.158;6.614;2022-12-08T06:25:32;4.45;;;2.50;;
52614;SDS011;38508;53.158;6.614;2022-12-08T06:27:58;2.85;;;2.60;;
52614;SDS011;38508;53.158;6.614;2022-12-08T06:30:23;3.63;;;2.67;;
52614;SDS011;38508;53.158;6.614;2022-12-08T06:32:50;4.45;;;2.53;;
52614;SDS011;38508;53.158;6.614;2022-12-08T06:35:15;2.67;;;2.40;;
52614;SDS011;38508;53.158;6.614;2022-12-08T06:37:41;3.85;;;2.70;;
52614;SDS011;38508;53.158;6.614;2022-12-08T06:40:07;3.08;;;2.25;;
52614;SDS011;38508;53.158;6.614;2022-12-08T06:42:33;4.38;;;2.75;;
52614;SDS011;38508;53.158;6.614;2022-12-08T06:45:08;2.97;;;2.70;;
52614;SDS011;38508;53.158;6.614;2022-12-08T06:47:34;3.45;;;2.50;;
52614;SDS011;38508;53.158;6.614;2022-12-08T06:50:00;2.40;;;2.20;;
52614;SDS011;38508;53.158;6.614;2022-12-08T06:52:26;2.13;;;1.80;;
52614;SDS011;38508;53.158;6.614;2022-12-08T06:54:52;3.13;;;2.15;;
52614;SDS011;38508;53.158;6.614;2022-12-08T06:57:17;2.70;;;2.50;;
52614;SDS011;38508;53.158;6.614;2022-12-08T06:59:43;2.72;;;2.53;;
52614;SDS011;38508;53.158;6.614;2022-12-08T07:02:09;3.30;;;2.30;;
52614;SDS011;38508;53.158;6.614;2022-12-08T07:04:35;2.50;;;2.30;;
52614;SDS011;38508;53.158;6.614;2022-12-08T07:07:01;1.70;;;1.60;;
52614;SDS011;38508;53.158;6.614;2022-12-08T07:09:27;2.08;;;1.88;;
52614;SDS011;38508;53.158;6.614;2022-12-08T07:11:53;3.90;;;2.05;;
52614;SDS011;38508;53.158;6.614;2022-12-08T07:14:19;3.63;;;2.10;;
52614;SDS011;38508;53.158;6.614;2022-12-08T07:16:49;2.15;;;2.05;;
52614;SDS011;38508;53.158;6.614;2022-12-08T07:19:15;2.03;;;1.88;;
52614;SDS011;38508;53.158;6.614;2022-12-08T07:21:41;1.88;;;1.77;;
52614;SDS011;38508;53.158;6.614;2022-12-08T07:24:07;1.90;;;1.50;;
52614;SDS011;38508;53.158;6.614;2022-12-08T07:26:33;6.68;;;2.03;;
52614;SDS011;38508;53.158;6.614;2022-12-08T07:28:58;2.10;;;1.88;;
52614;SDS011;38508;53.158;6.614;2022-12-08T07:31:24;1.70;;;1.60;;
52614;SDS011;38508;53.158;6.614;2022-12-08T07:33:52;3.33;;;1.63;;
52614;SDS011;38508;53.158;6.614;2022-12-08T07:36:19;4.97;;;1.70;;
52614;SDS011;38508;53.158;6.614;2022-12-08T07:38:45;2.50;;;1.60;;
52614;SDS011;38508;53.158;6.614;2022-12-08T07:41:12;1.98;;;1.80;;
52614;SDS011;38508;53.158;6.614;2022-12-08T07:43:42;2.15;;;1.90;;
52614;SDS011;38508;53.158;6.614;2022-12-08T07:46:12;3.40;;;1.80;;
52614;SDS011;38508;53.158;6.614;2022-12-08T07:48:39;7.57;;;2.30;;
52614;SDS011;38508;53.158;6.614;2022-12-08T07:51:05;2.97;;;1.50;;
52614;SDS011;38508;53.158;6.614;2022-12-08T07:53:31;2.97;;;1.90;;
52614;SDS011;38508;53.158;6.614;2022-12-08T07:55:57;2.75;;;1.90;;
52614;SDS011;38508;53.158;6.614;2022-12-08T07:58:23;3.88;;;2.08;;
52614;SDS011;38508;53.158;6.614;2022-12-08T08:00:50;3.53;;;2.22;;
52614;SDS011;38508;53.158;6.614;2022-12-08T08:03:16;5.13;;;2.42;;
52614;SDS011;38508;53.158;6.614;2022-12-08T08:05:42;2.70;;;1.80;;
52614;SDS011;38508;53.158;6.614;2022-12-08T08:08:08;2.67;;;1.92;;
52614;SDS011;38508;53.158;6.614;2022-12-08T08:10:34;3.72;;;2.00;;
52614;SDS011;38508;53.158;6.614;2022-12-08T08:13:00;3.85;;;2.20;;
52614;SDS011;38508;53.158;6.614;2022-12-08T08:15:26;6.57;;;2.40;;
52614;SDS011;38508;53.158;6.614;2022-12-08T08:17:52;4.53;;;2.42;;
52614;SDS011;38508;53.158;6.614;2022-12-08T08:20:18;8.63;;;2.22;;
52614;SDS011;38508;53.158;6.614;2022-12-08T08:22:45;7.75;;;2.80;;
52614;SDS011;38508;53.158;6.614;2022-12-08T08:25:12;3.70;;;2.53;;
52614;SDS011;38508;53.158;6.614;2022-12-08T08:27:38;6.43;;;2.47;;
52614;SDS011;38508;53.158;6.614;2022-12-08T08:30:08;6.35;;;2.45;;
52614;SDS011;38508;53.158;6.614;2022-12-08T08:32:35;3.08;;;2.78;;
52614;SDS011;38508;53.158;6.614;2022-12-08T08:35:01;7.10;;;3.67;;
52614;SDS011;38508;53.158;6.614;2022-12-08T08:37:27;7.25;;;3.70;;
52614;SDS011;38508;53.158;6.614;2022-12-08T08:39:53;5.63;;;3.88;;
52614;SDS011;38508;53.158;6.614;2022-12-08T08:42:19;8.73;;;3.60;;
52614;SDS011;38508;53.158;6.614;2022-12-08T08:44:46;4.10;;;3.00;;
52614;SDS011;38508;53.158;6.614;2022-12-08T08:47:12;4.63;;;3.15;;
52614;SDS011;38508;53.158;6.614;2022-12-08T08:49:38;5.45;;;3.33;;
52614;SDS011;38508;53.158;6.614;2022-12-08T08:52:04;3.40;;;3.10;;
52614;SDS011;38508;53.158;6.614;2022-12-08T08:54:30;3.53;;;2.97;;
52614;SDS011;38508;53.158;6.614;2022-12-08T08:56:56;4.10;;;3.40;;
52614;SDS011;38508;53.158;6.614;2022-12-08T08:59:23;4.10;;;2.90;;
52614;SDS011;38508;53.158;6.614;2022-12-08T09:01:49;9.57;;;3.10;;
52614;SDS011;38508;53.158;6.614;2022-12-08T09:04:15;8.60;;;3.85;;
52614;SDS011;38508;53.158;6.614;2022-12-08T09:06:41;3.92;;;2.65;;
52614;SDS011;38508;53.158;6.614;2022-12-08T09:09:08;3.42;;;2.47;;
52614;SDS011;38508;53.158;6.614;2022-12-08T09:11:34;3.55;;;2.70;;
52614;SDS011;38508;53.158;6.614;2022-12-08T09:13:59;6.40;;;2.83;;
52614;SDS011;38508;53.158;6.614;2022-12-08T09:16:25;10.02;;;3.50;;
52614;SDS011;38508;53.158;6.614;2022-12-08T09:18:51;3.60;;;2.33;;
52614;SDS011;38508;53.158;6.614;2022-12-08T09:21:18;6.20;;;2.50;;
52614;SDS011;38508;53.158;6.614;2022-12-08T09:23:50;6.38;;;2.42;;
52614;SDS011;38508;53.158;6.614;2022-12-08T09:26:17;7.32;;;2.90;;
52614;SDS011;38508;53.158;6.614;2022-12-08T09:28:46;4.35;;;2.63;;
52614;SDS011;38508;53.158;6.614;2022-12-08T09:31:14;6.78;;;2.95;;
52614;SDS011;38508;53.158;6.614;2022-12-08T09:33:41;5.47;;;2.70;;
52614;SDS011;38508;53.158;6.614;2022-12-08T09:36:07;18.38;;;3.33;;
52614;SDS011;38508;53.158;6.614;2022-12-08T09:38:33;3.13;;;2.80;;
52614;SDS011;38508;53.158;6.614;2022-12-08T09:41:00;7.80;;;3.60;;
52614;SDS011;38508;53.158;6.614;2022-12-08T09:43:40;4.95;;;4.00;;
52614;SDS011;38508;53.158;6.614;2022-12-08T09:46:22;6.03;;;3.90;;
52614;SDS011;38508;53.158;6.614;2022-12-08T09:48:53;8.07;;;4.03;;
52614;SDS011;38508;53.158;6.614;2022-12-08T09:51:25;5.97;;;4.30;;
52614;SDS011;38508;53.158;6.614;2022-12-08T09:53:55;8.13;;;3.55;;
52614;SDS011;38508;53.158;6.614;2022-12-08T09:56:31;6.07;;;3.67;;
52614;SDS011;38508;53.158;6.614;2022-12-08T10:01:43;6.97;;;4.53;;
52614;SDS011;38508;53.158;6.614;2022-12-08T10:04:15;9.68;;;4.10;;
52614;SDS011;38508;53.158;6.614;2022-12-08T10:09:30;5.87;;;3.83;;
52614;SDS011;38508;53.158;6.614;2022-12-08T10:12:26;9.30;;;4.20;;
52614;SDS011;38508;53.158;6.614;2022-12-08T10:17:50;10.80;;;4.60;;
52614;SDS011;38508;53.158;6.614;2022-12-08T10:20:22;10.43;;;4.50;;
52614;SDS011;38508;53.158;6.614;2022-12-08T10:23:35;11.43;;;4.65;;
52614;SDS011;38508;53.158;6.614;2022-12-08T10:25:48;5.55;;;3.95;;
52614;SDS011;38508;53.158;6.614;2022-12-08T10:28:28;10.75;;;4.80;;
52614;SDS011;38508;53.158;6.614;2022-12-08T10:30:56;8.85;;;4.03;;
52614;SDS011;38508;53.158;6.614;2022-12-08T10:33:21;7.60;;;4.28;;
52614;SDS011;38508;53.158;6.614;2022-12-08T10:35:48;10.52;;;4.20;;
52614;SDS011;38508;53.158;6.614;2022-12-08T10:38:21;12.52;;;4.18;;
52614;SDS011;38508;53.158;6.614;2022-12-08T10:40:53;6.68;;;4.00;;
52614;SDS011;38508;53.158;6.614;2022-12-08T10:43:24;6.18;;;4.90;;
52614;SDS011;38508;53.158;6.614;2022-12-08T10:45:51;9.15;;;4.70;;
52614;SDS011;38508;53.158;6.614;2022-12-08T10:48:23;5.45;;;4.55;;
52614;SDS011;38508;53.158;6.614;2022-12-08T10:50:56;6.95;;;4.35;;
52614;SDS011;38508;53.158;6.614;2022-12-08T10:53:27;5.43;;;4.10;;
52614;SDS011;38508;53.158;6.614;2022-12-08T11:01:25;6.47;;;3.17;;
52614;SDS011;38508;53.158;6.614;2022-12-08T11:03:57;3.20;;;2.90;;
52614;SDS011;38508;53.158;6.614;2022-12-08T11:09:01;7.13;;;2.35;;
52614;SDS011;38508;53.158;6.614;2022-12-08T11:11:58;3.50;;;2.17;;
52614;SDS011;38508;53.158;6.614;2022-12-08T11:14:31;3.67;;;2.00;;
52614;SDS011;38508;53.158;6.614;2022-12-08T11:19:38;3.90;;;2.00;;
52614;SDS011;38508;53.158;6.614;2022-12-08T11:25:10;3.58;;;2.00;;
52614;SDS011;38508;53.158;6.614;2022-12-08T11:27:42;5.75;;;1.95;;
52614;SDS011;38508;53.158;6.614;2022-12-08T11:30:19;6.50;;;2.13;;
52614;SDS011;38508;53.158;6.614;2022-12-08T11:33:00;6.45;;;2.35;;
52614;SDS011;38508;53.158;6.614;2022-12-08T11:35:44;6.07;;;1.73;;
52614;SDS011;38508;53.158;6.614;2022-12-08T11:38:17;2.80;;;1.08;;
52614;SDS011;38508;53.158;6.614;2022-12-08T11:40:46;5.93;;;1.45;;
52614;SDS011;38508;53.158;6.614;2022-12-08T11:43:29;7.70;;;1.20;;
52614;SDS011;38508;53.158;6.614;2022-12-08T11:46:00;4.60;;;1.02;;
52614;SDS011;38508;53.158;6.614;2022-12-08T11:48:46;5.68;;;1.38;;
52614;SDS011;38508;53.158;6.614;2022-12-08T11:51:33;1.85;;;1.08;;
52614;SDS011;38508;53.158;6.614;2022-12-08T11:54:07;6.47;;;1.13;;
52614;SDS011;38508;53.158;6.614;2022-12-08T11:56:46;5.10;;;1.90;;
52614;SDS011;38508;53.158;6.614;2022-12-08T11:59:17;7.72;;;1.63;;
52614;SDS011;38508;53.158;6.614;2022-12-08T12:01:51;2.90;;;1.25;;
52614;SDS011;38508;53.158;6.614;2022-12-08T12:20:33;2.63;;;1.30;;
52614;SDS011;38508;53.158;6.614;2022-12-08T12:23:17;3.15;;;1.33;;
52614;SDS011;38508;53.158;6.614;2022-12-08T12:26:00;5.97;;;1.60;;
52614;SDS011;38508;53.158;6.614;2022-12-08T12:28:30;2.65;;;1.10;;
52614;SDS011;38508;53.158;6.614;2022-12-08T12:31:05;1.98;;;1.13;;
52614;SDS011;38508;53.158;6.614;2022-12-08T12:33:34;2.75;;;1.23;;
52614;SDS011;38508;53.158;6.614;2022-12-08T12:36:01;4.65;;;1.30;;
52614;SDS011;38508;53.158;6.614;2022-12-08T12:38:31;15.77;;;2.10;;
52614;SDS011;38508;53.158;6.614;2022-12-08T12:41:42;12.63;;;2.65;;
52614;SDS011;38508;53.158;6.614;2022-12-08T12:57:14;1.90;;;0.50;;
52614;SDS011;38508;53.158;6.614;2022-12-08T13:02:15;1.00;;;0.30;;
52614;SDS011;38508;53.158;6.614;2022-12-08T13:04:42;2.22;;;0.40;;
52614;SDS011;38508;53.158;6.614;2022-12-08T13:10:37;2.20;;;0.47;;
52614;SDS011;38508;53.158;6.614;2022-12-08T13:15:37;5.50;;;0.70;;
52614;SDS011;38508;53.158;6.614;2022-12-08T13:18:06;116.40;;;6.40;;
52614;SDS011;38508;53.158;6.614;2022-12-08T13:20:44;6.05;;;1.00;;
52614;SDS011;38508;53.158;6.614;2022-12-08T13:26:22;1.98;;;0.50;;
52614;SDS011;38508;53.158;6.614;2022-12-08T13:33:59;3.03;;;0.77;;
52614;SDS011;38508;53.158;6.614;2022-12-08T13:36:31;3.75;;;0.98;;
52614;SDS011;38508;53.158;6.614;2022-12-08T13:39:02;6.95;;;1.40;;
52614;SDS011;38508;53.158;6.614;2022-12-08T13:41:40;3.03;;;1.40;;
52614;SDS011;38508;53.158;6.614;2022-12-08T13:44:22;2.00;;;1.25;;
52614;SDS011;38508;53.158;6.614;2022-12-08T13:46:58;1.83;;;1.42;;
52614;SDS011;38508;53.158;6.614;2022-12-08T13:49:29;4.47;;;1.70;;
52614;SDS011;38508;53.158;6.614;2022-12-08T13:52:03;3.88;;;1.50;;
52614;SDS011;38508;53.158;6.614;2022-12-08T13:57:01;3.05;;;1.67;;
52614;SDS011;38508;53.158;6.614;2022-12-08T13:59:32;2.78;;;1.70;;
52614;SDS011;38508;53.158;6.614;2022-12-08T14:02:25;3.13;;;1.75;;
52614;SDS011;38508;53.158;6.614;2022-12-08T14:04:47;3.38;;;1.90;;
52614;SDS011;38508;53.158;6.614;2022-12-08T14:07:13;5.07;;;2.10;;
52614;SDS011;38508;53.158;6.614;2022-12-08T14:09:39;2.53;;;1.77;;
52614;SDS011;38508;53.158;6.614;2022-12-08T14:12:17;2.40;;;1.90;;
52614;SDS011;38508;53.158;6.614;2022-12-08T14:14:49;2.75;;;1.90;;
52614;SDS011;38508;53.158;6.614;2022-12-08T14:17:18;5.40;;;2.05;;
52614;SDS011;38508;53.158;6.614;2022-12-08T14:19:56;2.45;;;1.80;;
52614;SDS011;38508;53.158;6.614;2022-12-08T14:22:32;2.08;;;1.85;;
52614;SDS011;38508;53.158;6.614;2022-12-08T14:24:59;5.60;;;2.30;;
52614;SDS011;38508;53.158;6.614;2022-12-08T14:27:26;3.33;;;2.20;;
52614;SDS011;38508;53.158;6.614;2022-12-08T14:29:56;3.78;;;2.05;;
52614;SDS011;38508;53.158;6.614;2022-12-08T14:35:22;4.55;;;2.20;;
52614;SDS011;38508;53.158;6.614;2022-12-08T14:37:49;4.32;;;2.20;;
52614;SDS011;38508;53.158;6.614;2022-12-08T14:42:49;3.50;;;1.90;;
52614;SDS011;38508;53.158;6.614;2022-12-08T14:45:16;6.13;;;2.40;;
52614;SDS011;38508;53.158;6.614;2022-12-08T14:47:43;3.75;;;2.20;;
52614;SDS011;38508;53.158;6.614;2022-12-08T14:53:10;3.78;;;1.90;;
52614;SDS011;38508;53.158;6.614;2022-12-08T14:55:41;2.50;;;1.40;;
52614;SDS011;38508;53.158;6.614;2022-12-08T14:58:17;2.08;;;1.50;;
52614;SDS011;38508;53.158;6.614;2022-12-08T15:00:48;3.60;;;1.60;;
52614;SDS011;38508;53.158;6.614;2022-12-08T15:03:16;2.13;;;1.55;;
52614;SDS011;38508;53.158;6.614;2022-12-08T15:05:44;3.88;;;1.70;;
52614;SDS011;38508;53.158;6.614;2022-12-08T15:08:14;3.28;;;1.90;;
52614;SDS011;38508;53.158;6.614;2022-12-08T15:10:40;3.22;;;1.50;;
52614;SDS011;38508;53.158;6.614;2022-12-08T15:15:51;2.97;;;1.73;;
52614;SDS011;38508;53.158;6.614;2022-12-08T15:18:29;3.10;;;1.88;;
52614;SDS011;38508;53.158;6.614;2022-12-08T15:21:02;2.85;;;1.63;;
52614;SDS011;38508;53.158;6.614;2022-12-08T15:23:40;2.45;;;1.75;;
52614;SDS011;38508;53.158;6.614;2022-12-08T15:26:09;3.20;;;1.90;;
52614;SDS011;38508;53.158;6.614;2022-12-08T15:31:10;2.83;;;1.50;;
52614;SDS011;38508;53.158;6.614;2022-12-08T15:33:36;7.97;;;1.60;;
52614;SDS011;38508;53.158;6.614;2022-12-08T15:36:02;5.05;;;1.58;;
52614;SDS011;38508;53.158;6.614;2022-12-08T15:38:28;2.97;;;1.80;;
52614;SDS011;38508;53.158;6.614;2022-12-08T15:40:54;2.30;;;1.77;;
52614;SDS011;38508;53.158;6.614;2022-12-08T15:43:21;2.88;;;1.55;;
52614;SDS011;38508;53.158;6.614;2022-12-08T15:45:47;4.53;;;1.80;;
52614;SDS011;38508;53.158;6.614;2022-12-08T15:48:23;4.65;;;2.00;;
52614;SDS011;38508;53.158;6.614;2022-12-08T15:50:51;4.03;;;1.80;;
52614;SDS011;38508;53.158;6.614;2022-12-08T15:53:17;2.67;;;1.80;;
52614;SDS011;38508;53.158;6.614;2022-12-08T15:55:43;4.55;;;1.63;;
52614;SDS011;38508;53.158;6.614;2022-12-08T15:58:19;1.75;;;1.50;;
52614;SDS011;38508;53.158;6.614;2022-12-08T16:00:47;2.55;;;1.60;;
52614;SDS011;38508;53.158;6.614;2022-12-08T16:03:21;2.05;;;1.60;;
52614;SDS011;38508;53.158;6.614;2022-12-08T16:05:52;4.10;;;2.03;;
52614;SDS011;38508;53.158;6.614;2022-12-08T16:08:19;3.92;;;1.50;;
52614;SDS011;38508;53.158;6.614;2022-12-08T16:10:46;4.38;;;1.75;;
52614;SDS011;38508;53.158;6.614;2022-12-08T16:13:16;3.60;;;1.75;;
52614;SDS011;38508;53.158;6.614;2022-12-08T16:16:02;2.58;;;1.58;;
52614;SDS011;38508;53.158;6.614;2022-12-08T16:18:33;2.35;;;1.60;;
52614;SDS011;38508;53.158;6.614;2022-12-08T16:21:02;4.05;;;1.83;;
52614;SDS011;38508;53.158;6.614;2022-12-08T16:23:34;3.88;;;1.90;;
52614;SDS011;38508;53.158;6.614;2022-12-08T16:25:59;4.95;;;1.80;;
52614;SDS011;38508;53.158;6.614;2022-12-08T16:28:26;4.60;;;2.28;;
52614;SDS011;38508;53.158;6.614;2022-12-08T16:30:51;4.35;;;1.95;;
52614;SDS011;38508;53.158;6.614;2022-12-08T16:33:17;3.33;;;1.70;;
52614;SDS011;38508;53.158;6.614;2022-12-08T16:35:43;2.95;;;1.58;;
52614;SDS011;38508;53.158;6.614;2022-12-08T16:38:15;3.65;;;2.03;;
52614;SDS011;38508;53.158;6.614;2022-12-08T16:40:47;1.80;;;1.50;;
52614;SDS011;38508;53.158;6.614;2022-12-08T16:43:31;3.70;;;2.17;;
52614;SDS011;38508;53.158;6.614;2022-12-08T16:45:58;3.70;;;1.83;;
52614;SDS011;38508;53.158;6.614;2022-12-08T16:48:24;6.50;;;2.20;;
52614;SDS011;38508;53.158;6.614;2022-12-08T16:50:50;3.35;;;2.00;;
52614;SDS011;38508;53.158;6.614;2022-12-08T16:53:15;3.85;;;1.80;;
52614;SDS011;38508;53.158;6.614;2022-12-08T16:55:44;7.00;;;2.05;;